»·PEaware :: N704YA CAJ3-KSFF

N704YA :: CAJ3-KSFF

FLIGHT INFORMATION

Flight Status: Arrived
Operator: Privately registered:
United States
More flights under this callsign
Pilot: Wayne R. (17783)
Aircraft: CESSNA 152 AEROBAT
(C152)
More flights by this aircraft type
Origin: CAJ3 Creston
Canada
Destination: KSFF Felts
United States
More flights between these airports :: More routes between these airports
Route:
File this flight plan on PilotEdge
Remarks:
Altitude:
(Current/Filed)
4,500ft
Speed:
(Current/Filed)
100kts
Departed: 13-Dec-20 08:35 AM
Arrived: 13-Dec-20 10:30 AM
Distance/Time
Traveled:
88nm/1:55
Distance/Time
To Go:
Arrived

Flight Plot

Page will automatically refresh every two minutes.

Flight plan parsing failed; only flown route is shown


Map Options




Map Legend


Flown Route
Filed Route
Departure Airport
Arrival Airport
Navaid (VOR, NDB)
Fix

Horizontal Profiles

Position Reports

Time Latitude Longitude Heading Altitude Ground
Speed
13-Dec-20 08:32 49.041541 -116.499411 169 2075ft 0kts
13-Dec-20 08:33 49.041541 -116.499411 169 2075ft 0kts
13-Dec-20 08:34 49.041541 -116.499411 169 2075ft 0kts
13-Dec-20 08:35 49.037631 -116.498346 170 2081ft 69kts
13-Dec-20 08:36 49.016589 -116.491991 161 2650ft 88kts
13-Dec-20 08:37 48.992692 -116.480399 160 3193ft 92kts
13-Dec-20 08:38 48.966715 -116.468258 162 3456ft 104kts
13-Dec-20 08:39 48.939164 -116.453347 157 3526ft 104kts
13-Dec-20 08:40 48.912331 -116.440466 164 3787ft 101kts
13-Dec-20 08:41 48.884773 -116.431962 170 4010ft 100kts
13-Dec-20 08:41 48.861631 -116.425380 169 4170ft 102kts
13-Dec-20 08:43 48.828536 -116.415219 168 4262ft 106kts
13-Dec-20 08:43 48.804045 -116.410439 181 4264ft 106kts
13-Dec-20 08:45 48.769618 -116.409884 177 4289ft 106kts
13-Dec-20 08:45 48.744901 -116.409035 180 4308ft 106kts
13-Dec-20 08:46 48.715295 -116.406647 179 4328ft 106kts
13-Dec-20 08:47 48.685706 -116.406028 178 4341ft 106kts
13-Dec-20 08:48 48.656088 -116.406668 188 4355ft 106kts
13-Dec-20 08:49 48.627301 -116.417119 195 4359ft 105kts
13-Dec-20 08:50 48.599707 -116.428317 194 4548ft 101kts
13-Dec-20 08:51 48.572268 -116.439014 194 4745ft 101kts
13-Dec-20 08:52 48.544301 -116.449778 198 4822ft 104kts
13-Dec-20 08:53 48.519331 -116.471560 224 4875ft 104kts
13-Dec-20 08:54 48.505574 -116.509427 259 4919ft 104kts
13-Dec-20 08:55 48.509793 -116.552222 297 4975ft 105kts
13-Dec-20 08:56 48.530673 -116.582211 335 5015ft 105kts
13-Dec-20 08:57 48.559363 -116.585185 16 5051ft 105kts
13-Dec-20 08:58 48.570858 -116.576991 34 5085ft 0kts
13-Dec-20 08:59 48.570858 -116.576991 34 5085ft 0kts
13-Dec-20 09:00 48.570858 -116.576991 34 5085ft 0kts
13-Dec-20 09:01 48.570858 -116.576991 34 5085ft 0kts
13-Dec-20 09:02 48.570858 -116.576991 34 5085ft 0kts
13-Dec-20 09:03 48.570858 -116.576991 34 5085ft 0kts
13-Dec-20 09:04 48.570858 -116.576991 34 5085ft 0kts
13-Dec-20 09:05 48.570858 -116.576991 34 5085ft 0kts
13-Dec-20 09:06 48.570858 -116.576991 34 5085ft 0kts
13-Dec-20 09:07 48.570858 -116.576991 34 5085ft 0kts
13-Dec-20 09:08 48.570858 -116.576991 34 5085ft 0kts
13-Dec-20 09:09 48.570858 -116.576991 34 5085ft 0kts
13-Dec-20 09:10 48.570858 -116.576991 34 5085ft 0kts
13-Dec-20 09:11 48.570858 -116.576991 34 5085ft 0kts
13-Dec-20 09:12 49.041542 -116.499411 169 2082ft 0kts
13-Dec-20 09:13 49.041293 -116.499326 164 2075ft 20kts
13-Dec-20 09:14 49.023952 -116.493751 169 2562ft 81kts
13-Dec-20 09:15 49.001000 -116.483428 159 3196ft 88kts
13-Dec-20 09:16 48.976217 -116.471426 164 3627ft 96kts
13-Dec-20 09:17 48.949255 -116.460329 156 3863ft 99kts
13-Dec-20 09:18 48.923268 -116.443849 164 3949ft 101kts
13-Dec-20 09:19 48.895980 -116.432729 165 4030ft 102kts
13-Dec-20 09:20 48.868044 -116.424414 173 4100ft 102kts
13-Dec-20 09:21 48.839679 -116.420635 168 4164ft 102kts
13-Dec-20 09:22 48.826795 -116.416476 170 4196ft 102kts
13-Dec-20 09:23 48.826795 -116.416476 170 4196ft 102kts
13-Dec-20 09:24 48.826795 -116.416476 170 4196ft 102kts
13-Dec-20 09:25 48.826795 -116.416476 170 4196ft 102kts
13-Dec-20 09:26 48.826795 -116.416476 170 4196ft 102kts
13-Dec-20 09:27 48.826795 -116.416476 170 4196ft 102kts
13-Dec-20 09:28 48.826795 -116.416476 170 4196ft 102kts
13-Dec-20 09:29 48.826795 -116.416476 170 4196ft 102kts
13-Dec-20 09:30 48.826795 -116.416476 170 4196ft 102kts
13-Dec-20 09:31 48.802476 -116.414214 179 4254ft 101kts
13-Dec-20 09:32 48.774139 -116.412654 183 4320ft 102kts
13-Dec-20 09:33 48.745781 -116.410570 177 4373ft 103kts
13-Dec-20 09:34 48.717431 -116.410570 187 4438ft 102kts
13-Dec-20 09:35 48.688982 -116.409878 179 4485ft 102kts
13-Dec-20 09:36 48.660545 -116.412829 182 4513ft 102kts
13-Dec-20 09:37 48.632143 -116.414811 190 4526ft 102kts
13-Dec-20 09:38 48.605011 -116.427491 203 4581ft 101kts
13-Dec-20 09:39 48.580180 -116.447672 194 4630ft 102kts
13-Dec-20 09:40 48.551754 -116.449900 181 4679ft 102kts
13-Dec-20 09:41 48.523660 -116.457687 203 4693ft 102kts
13-Dec-20 09:42 48.496668 -116.469742 178 4707ft 103kts
13-Dec-20 09:43 48.468045 -116.466886 186 4723ft 103kts
13-Dec-20 09:44 48.440480 -116.478284 200 4748ft 102kts
13-Dec-20 09:45 48.415602 -116.498955 221 4764ft 102kts
13-Dec-20 09:46 48.390336 -116.518303 207 4769ft 103kts
13-Dec-20 09:47 48.362964 -116.530537 193 4768ft 103kts
13-Dec-20 09:48 48.336498 -116.546650 216 4765ft 103kts
13-Dec-20 09:49 48.315149 -116.575652 223 4719ft 103kts
13-Dec-20 09:50 48.295293 -116.606974 232 4659ft 103kts
13-Dec-20 09:51 48.280656 -116.643926 230 4620ft 103kts
13-Dec-20 09:52 48.259364 -116.672869 223 4601ft 103kts
13-Dec-20 09:53 48.239462 -116.703687 214 4575ft 103kts
13-Dec-20 09:54 48.214335 -116.724620 212 4565ft 103kts
13-Dec-20 09:55 48.189059 -116.744870 197 4541ft 104kts
13-Dec-20 09:56 48.162141 -116.760274 211 4538ft 103kts
13-Dec-20 09:57 48.135606 -116.775902 185 4523ft 104kts
13-Dec-20 09:58 48.106779 -116.779006 189 4522ft 104kts
13-Dec-20 09:59 48.078107 -116.778493 170 4520ft 104kts
13-Dec-20 10:00 48.050298 -116.777712 186 4513ft 104kts
13-Dec-20 10:01 48.050298 -116.777712 186 4513ft 104kts
13-Dec-20 10:02 48.050298 -116.777712 186 4513ft 104kts
13-Dec-20 10:03 48.028887 -116.780375 190 4506ft 104kts
13-Dec-20 10:04 47.999994 -116.781851 185 4513ft 104kts
13-Dec-20 10:05 47.971220 -116.784190 183 4514ft 104kts
13-Dec-20 10:06 47.942295 -116.789023 184 4511ft 104kts
13-Dec-20 10:07 47.913402 -116.790241 187 4520ft 103kts
13-Dec-20 10:08 47.884720 -116.793822 184 4523ft 104kts
13-Dec-20 10:09 47.856318 -116.801188 194 4527ft 103kts
13-Dec-20 10:10 47.829715 -116.816959 194 4527ft 103kts
13-Dec-20 10:11 47.801229 -116.822597 184 4536ft 103kts
13-Dec-20 10:12 47.772661 -116.820559 168 4543ft 103kts
13-Dec-20 10:13 47.744220 -116.814427 181 4541ft 103kts
13-Dec-20 10:14 47.715911 -116.817888 198 4520ft 103kts
13-Dec-20 10:15 47.690036 -116.835883 229 4501ft 104kts
13-Dec-20 10:16 47.695693 -116.876305 299 4420ft 103kts
13-Dec-20 10:18 47.708283 -116.914497 296 4419ft 103kts
13-Dec-20 10:19 47.715465 -116.955291 277 4415ft 102kts
13-Dec-20 10:20 47.712540 -116.997224 260 4419ft 102kts
13-Dec-20 10:21 47.712403 -117.039228 281 4411ft 102kts
13-Dec-20 10:22 47.713308 -117.080929 269 4412ft 101kts
13-Dec-20 10:23 47.711500 -117.123056 261 4420ft 101kts
13-Dec-20 10:24 47.710555 -117.164824 269 4410ft 99kts
13-Dec-20 10:25 47.713403 -117.204547 292 3705ft 97kts
13-Dec-20 10:26 47.720019 -117.239253 264 3276ft 85kts
13-Dec-20 10:27 47.710195 -117.270432 235 3096ft 78kts
13-Dec-20 10:28 47.696881 -117.296674 231 2548ft 78kts
13-Dec-20 10:29 47.684415 -117.320512 234 1956ft 57kts
13-Dec-20 10:30 47.680512 -117.320865 237 1954ft 0kts
13-Dec-20 10:31 47.680512 -117.320865 237 1954ft 0kts
13-Dec-20 10:32 47.680512 -117.320865 237 1954ft 0kts
13-Dec-20 10:33 47.680512 -117.320865 237 1954ft 0kts
13-Dec-20 10:34 47.680512 -117.320865 237 1954ft 0kts
13-Dec-20 10:34 47.680512 -117.320865 237 1954ft 0kts
13-Dec-20 10:36 47.680512 -117.320865 237 1954ft 0kts
13-Dec-20 10:36 47.680512 -117.320865 237 1954ft 0kts
13-Dec-20 10:38 47.680512 -117.320865 237 1954ft 0kts
13-Dec-20 10:38 47.680512 -117.320865 237 1954ft 0kts
13-Dec-20 10:40 47.680512 -117.320865 237 1954ft 0kts
13-Dec-20 10:40 47.680512 -117.320865 237 1954ft 0kts
13-Dec-20 10:41 47.680512 -117.320865 237 1954ft 0kts
13-Dec-20 10:42 47.680512 -117.320865 237 1954ft 0kts
13-Dec-20 10:43 47.680512 -117.320865 237 1954ft 0kts

Navigation Log

Ident Type
Flight plan parsing failed, navigation log unavailable